Portada
METAR-TAF:

METAR-TAF

Aeropuertos :

Aeropuerto Internacional de Dakar-Yoff/Léopold Sédar Senghor

Dakar, Senegal

latitud: 14-44N, longitud: 017-30W, altitud: 27 m

Observación

El informe se hizo hace 41 minutos, a las 15:00 UTC
Viento 14 kt del norte
Temperatura 25°C
Humedad 65%
Presión 1013 hPa
Visibilidad 10 km o más
sin nubes por debajo de 1500 m y sin presencia de cumulonimbus.

METAR: GOOY 201500Z 36014KT CAVOK 25/18 Q1013

Hora: 15:41 (15:41 UTC)

Pronóstico

El informe se hizo hace 4 horas y 11 minutos, a las 11:30 UTC
Pronóstico válido del 20 a las 12 UTC al 21 a las 18 UTC
Viento 14 kt del norte
Visibilidad 10 km o más
sin nubes por debajo de 1500 m y sin presencia de cumulonimbus.

TAF: GOOY 201130Z 2012/2118 01014KT CAVOK

Observaciones y pronósticos meteorológicos de más de 4000 aeropuertos (mensajes METAR y TAF).

Los puntos amarillos y rojos representan las estaciones disponibles.

Ponga el ratón en el punto deseado para ver el nombre de la estación.

Haga clic para ver las observaciones y los pronósticos meteorológicos.

Para cambiar el mapa : haga clic en los botones verdes con una cruz de color negro para hacer un zoom, en el botón verde con un guión para alejar o en las flechas verdes para mapas adyacentes.


METAR-TAF: